Site contains unofficial IBTrACS data. Visit the IBTrACS Website to access archived data.

1926 NOT_NAMED (1926226N18125)


IBTrACS version v04r00. Visit IBTrACS website for data access.
Please direct all questions to the IBTrACS Q and A forum

Storm track - Intensity - Wind Radii - Intensity Data - Source Data - All data

Summary Information

Storm ID 1926226N18125
Start Aug 13 22Z
End Aug 15 22Z
ATCF IDs
Track status Best track data.

Storm track plot

Map of storm track

Intensity plots

No Intensity information for this storm


Radial wind information

No radial wind information for this storm


Position and Intensity Table

BASIN ISO_TIME_________ NATURE LAT LON
degrees north degrees east
WP 1926-08-13 22:00:00 NR 17.60 125.20
WP 1926-08-14 00:00:00 NR 17.92 125.02
WP 03:00:00 NR 18.42 124.75
WP 06:00:00 NR 18.91 124.49
WP 09:00:00 NR 19.43 124.27
WP 10:00:00 NR 19.60 124.20
WP 12:00:00 NR 19.96 124.08
WP 15:00:00 NR 20.50 123.93
WP 18:00:00 NR 21.06 123.81
WP 21:00:00 NR 21.61 123.72
WP 22:00:00 NR 21.80 123.70
WP 1926-08-15 00:00:00 NR 22.18 123.70
WP 03:00:00 NR 22.76 123.72
WP 06:00:00 NR 23.31 123.73
WP 09:00:00 NR 23.84 123.65
WP 10:00:00 NR 24.00 123.60
WP 12:00:00 NR 24.31 123.44
WP 15:00:00 NR 24.73 123.10
WP 18:00:00 NR 25.12 122.66
WP 21:00:00 NR 25.48 122.17
WP 22:00:00 NR 25.60 122.00

Source Information

Agency Information
USA
TOKYO
CMA
HKO
NEWDELHI
REUNION
BOM
NADI
WELLINGTON
DS824
TD9636 cons_worldwide_trop_cyclone_18710101-19891231-003:Line=7617
TD9635
NEUMANN
MLC

All available IBTrACS Data

SEASON BASIN SUBBASIN ISO_TIME_________ NATURE LAT LON DIST2LAND LANDFALL IFLAG USA SSHS TD9636 LAT TD9636 LON TD9636 STAGE STORM SPEED STORM DIR
Year degrees north degrees east km km 1 degrees north degrees east kts degrees
1926 WP MM 1926-08-13 22:00:00 NR 17.60 125.20 294 283 __________O___ -1 17.60 125.20 4 11 332
1926 WP MM 1926-08-14 00:00:00 NR 17.92 125.02 283 253 __________P___ -1 17.92 125.02 4 11 332
1926 WP MM 03:00:00 NR 18.42 124.75 253 236 __________P___ -1 18.42 124.75 4 11 333
1926 WP MM 06:00:00 NR 18.91 124.49 238 231 __________P___ -1 18.91 124.49 4 11 336
1926 WP MM 09:00:00 NR 19.43 124.27 238 234 __________P___ -1 19.43 124.27 4 11 338
1926 WP MM 10:00:00 NR 19.60 124.20 240 238 __________O___ -1 19.60 124.20 4 11 341
1926 WP MM 12:00:00 NR 19.96 124.08 260 252 __________P___ -1 19.96 124.08 4 11 344
1926 WP MM 15:00:00 NR 20.50 123.93 288 288 __________P___ -1 20.50 123.93 4 11 347
1926 WP MM 18:00:00 NR 21.06 123.81 313 289 __________P___ -1 21.06 123.81 4 11 350
1926 WP MM 21:00:00 NR 21.61 123.72 289 277 __________P___ -1 21.61 123.72 4 11 353
1926 WP MM 22:00:00 NR 21.80 123.70 277 256 __________O___ -1 21.80 123.70 4 11 0
1926 WP MM 1926-08-15 00:00:00 NR 22.18 123.70 256 237 __________P___ -1 22.18 123.70 4 12 0
1926 WP MM 03:00:00 NR 22.76 123.72 237 226 __________P___ -1 22.76 123.72 4 11 0
1926 WP MM 06:00:00 NR 23.31 123.73 226 198 __________P___ -1 23.31 123.73 4 11 357
1926 WP MM 09:00:00 NR 23.84 123.65 198 181 __________P___ -1 23.84 123.65 4 11 350
1926 WP MM 10:00:00 NR 24.00 123.60 181 153 __________O___ -1 24.00 123.60 4 10 338
1926 WP MM 12:00:00 NR 24.31 123.44 153 115 __________P___ -1 24.31 123.44 4 10 328
1926 WP MM 15:00:00 NR 24.73 123.10 115 71 __________P___ -1 24.73 123.10 4 11 319
1926 WP MM 18:00:00 NR 25.12 122.66 71 49 __________P___ -1 25.12 122.66 4 11 312
1926 WP MM 21:00:00 NR 25.48 122.17 59 56 __________P___ -1 25.48 122.17 4 12 309
1926 WP MM 22:00:00 NR 25.60 122.00 60 __________O___ -1 25.60 122.00 4 12 308